Time;durP1;ratioP1;P1;durP2;ratioP2;P2;SDS_P1;SDS_P2;PMS_P1;PMS_P2;Temp;Humidity;BMP_temperature;BMP_pressure;BME280_temperature;BME280_humidity;BME280_pressure;Samples;Min_cycle;Max_cycle;Signal;HPM_P1;HPM_P2
2022/11/20 00:02:16;;;;;;;;;;;1.70;99.90;;;;;;5068706;28;20535;-76
2022/11/20 00:04:41;;;;;;;;;;;1.70;99.90;;;;;;5068539;28;19935;-76
2022/11/20 00:07:07;;;;;;;;;;;1.80;99.90;;;;;;5050472;28;19936;-76
2022/11/20 00:09:32;;;;;;;;;;;1.80;99.90;;;;;;5068072;28;19951;-76
2022/11/20 00:11:58;;;;;;;;;;;1.80;99.90;;;;;;5068315;28;19905;-76
2022/11/20 00:14:23;;;;;;;;;;;1.90;99.90;;;;;;5050022;28;19998;-75
2022/11/20 00:16:49;;;;;;;;;;;1.90;99.90;;;;;;5068120;28;19982;-76
2022/11/20 00:19:14;;;;;;;;;;;1.90;99.90;;;;;;5068477;28;19904;-76
2022/11/20 00:21:40;;;;;;;;;;;1.90;99.90;;;;;;5067824;28;19909;-76
2022/11/20 00:24:08;;;;;;;;;;;1.90;99.90;;;;;;5068863;28;20420;-76
2022/11/20 00:26:33;;;;;;;;;;;1.90;99.90;;;;;;5068683;28;20395;-76
2022/11/20 00:29:00;;;;;;;;;;;1.90;99.90;;;;;;5068223;28;19908;-76
2022/11/20 00:31:26;;;;;;;;;;;2.00;99.90;;;;;;5068753;28;19920;-76
2022/11/20 00:33:52;;;;;;;;;;;1.90;99.90;;;;;;5069143;28;19911;-75
2022/11/20 00:36:19;;;;;;;;;;;1.90;99.90;;;;;;5068769;28;19931;-76
2022/11/20 00:38:44;;;;;;;;;;;1.90;99.90;;;;;;5068735;28;19909;-76
2022/11/20 00:41:11;;;;;;;;;;;1.90;99.90;;;;;;5050450;28;19909;-76
2022/11/20 00:43:37;;;;;;;;;;;1.90;99.90;;;;;;5068510;28;19908;-76
2022/11/20 00:46:04;;;;;;;;;;;1.90;99.90;;;;;;5069097;28;20271;-76
2022/11/20 00:48:30;;;;;;;;;;;1.90;99.90;;;;;;5069028;28;19962;-76
2022/11/20 00:50:55;;;;;;;;;;;1.90;99.90;;;;;;5050725;28;20697;-76
2022/11/20 00:53:21;;;;;;;;;;;1.80;99.90;;;;;;5050764;28;19943;-77
2022/11/20 00:55:54;;;;;;;;;;;1.80;99.90;;;;;;5051034;28;19913;-76
2022/11/20 00:58:20;;;;;;;;;;;1.80;99.90;;;;;;5050895;28;19908;-76
2022/11/20 01:00:45;;;;;;;;;;;1.80;99.90;;;;;;5068182;28;19915;-76
2022/11/20 01:03:11;;;;;;;;;;;1.70;99.90;;;;;;5068690;28;20352;-76
2022/11/20 01:05:36;;;;;;;;;;;1.80;99.90;;;;;;5069120;28;19920;-77
2022/11/20 01:08:02;;;;;;;;;;;1.70;99.90;;;;;;5069245;28;19908;-76
2022/11/20 01:10:27;;;;;;;;;;;1.70;99.90;;;;;;5068981;28;19995;-76
2022/11/20 01:13:36;;;;;;;;;;;1.70;99.90;;;;;;5068463;28;19913;-77
2022/11/20 01:15:38;;;;;;;;;;;1.70;99.90;;;;;;5068717;28;19973;-76
2022/11/20 01:18:05;;;;;;;;;;;1.70;99.90;;;;;;5068816;28;19904;-77
2022/11/20 01:20:34;;;;;;;;;;;1.70;99.90;;;;;;5051702;28;19911;-76
2022/11/20 01:22:59;;;;;;;;;;;1.70;99.90;;;;;;5051906;28;20332;-77
2022/11/20 01:25:25;;;;;;;;;;;1.70;99.90;;;;;;5070324;28;19914;-76
2022/11/20 01:27:51;;;;;;;;;;;1.70;99.90;;;;;;5068070;28;19915;-76
2022/11/20 01:30:16;;;;;;;;;;;1.70;99.90;;;;;;5067666;28;19913;-76
2022/11/20 01:32:42;;;;;;;;;;;1.70;99.90;;;;;;5068461;28;20391;-77
2022/11/20 01:35:09;;;;;;;;;;;1.70;99.90;;;;;;5053319;28;20003;-77
2022/11/20 01:37:34;;;;;;;;;;;1.70;99.90;;;;;;5070947;28;19908;-76
2022/11/20 01:40:00;;;;;;;;;;;1.70;99.90;;;;;;5070523;28;19911;-76
2022/11/20 01:45:28;;;;;;;;;;;1.70;99.90;;;;;;5070687;28;20384;-77
2022/11/20 01:47:54;;;;;;;;;;;1.70;99.90;;;;;;5052556;28;20412;-76
2022/11/20 01:50:23;;;;;;;;;;;1.60;99.90;;;;;;5070780;28;19904;-76
2022/11/20 01:52:55;;;;;;;;;;;1.60;99.90;;;;;;5052667;28;19946;-76
2022/11/20 01:55:23;;;;;;;;;;;1.60;99.90;;;;;;5070508;28;19905;-76
2022/11/20 01:57:49;;;;;;;;;;;1.60;99.90;;;;;;5070488;28;19965;-76
2022/11/20 02:00:17;;;;;;;;;;;1.60;99.90;;;;;;5070923;28;19908;-76
2022/11/20 02:02:43;;;;;;;;;;;1.60;99.90;;;;;;5070670;28;19908;-76
2022/11/20 02:05:14;;;;;;;;;;;1.60;99.90;;;;;;5070499;28;20663;-76
2022/11/20 02:07:40;;;;;;;;;;;1.60;99.90;;;;;;5052567;28;20388;-76
2022/11/20 02:10:05;;;;;;;;;;;1.50;99.90;;;;;;5070271;28;19908;-76
2022/11/20 02:15:15;;;;;;;;;;;1.50;99.90;;;;;;5070809;28;19965;-76
2022/11/20 02:17:40;;;;;;;;;;;1.50;99.90;;;;;;5070448;28;19912;-76
2022/11/20 02:20:06;;;;;;;;;;;1.50;99.90;;;;;;5052113;28;19966;-77
2022/11/20 02:22:36;;;;;;;;;;;1.50;99.90;;;;;;5052054;28;20006;-77
2022/11/20 02:25:02;;;;;;;;;;;1.50;99.90;;;;;;5052073;28;19912;-75
2022/11/20 02:27:28;;;;;;;;;;;1.40;99.90;;;;;;5070400;28;20372;-77
2022/11/20 02:29:57;;;;;;;;;;;1.40;99.90;;;;;;5052387;28;19939;-77
2022/11/20 02:32:27;;;;;;;;;;;1.40;99.90;;;;;;5069920;28;19928;-76
2022/11/20 02:34:52;;;;;;;;;;;1.40;99.90;;;;;;5070724;28;20442;-76
2022/11/20 02:37:18;;;;;;;;;;;1.40;99.90;;;;;;5070005;28;19963;-76
2022/11/20 02:39:45;;;;;;;;;;;1.40;99.90;;;;;;5069912;28;19904;-76
2022/11/20 02:42:10;;;;;;;;;;;1.40;99.90;;;;;;5050924;28;20384;-76
2022/11/20 02:44:36;;;;;;;;;;;1.30;99.90;;;;;;5051198;28;19911;-76
2022/11/20 02:47:01;;;;;;;;;;;1.40;99.90;;;;;;5069752;28;19915;-76
2022/11/20 02:49:27;;;;;;;;;;;1.40;99.90;;;;;;5051598;28;19939;-76
2022/11/20 02:51:52;;;;;;;;;;;1.30;99.90;;;;;;5052110;28;19908;-76
2022/11/20 02:54:18;;;;;;;;;;;1.30;99.90;;;;;;5051890;28;20376;-76
2022/11/20 02:56:43;;;;;;;;;;;1.30;99.90;;;;;;5050574;28;20033;-76
2022/11/20 02:59:09;;;;;;;;;;;1.30;99.90;;;;;;5070456;28;19908;-77
2022/11/20 03:01:35;;;;;;;;;;;1.20;99.90;;;;;;5070311;28;19909;-76
2022/11/20 03:04:00;;;;;;;;;;;1.30;99.90;;;;;;5070107;28;20341;-76
2022/11/20 03:06:26;;;;;;;;;;;1.20;99.90;;;;;;5069964;28;19908;-77
2022/11/20 03:08:51;;;;;;;;;;;1.20;99.90;;;;;;5069611;28;19905;-76
2022/11/20 03:11:17;;;;;;;;;;;1.20;99.90;;;;;;5069713;28;20385;-76
2022/11/20 03:13:42;;;;;;;;;;;1.20;99.90;;;;;;5069656;28;20011;-76
2022/11/20 03:16:10;;;;;;;;;;;1.20;99.90;;;;;;5051734;28;19958;-76
2022/11/20 03:18:35;;;;;;;;;;;1.20;99.90;;;;;;5069957;28;19909;-77
2022/11/20 03:21:01;;;;;;;;;;;1.20;99.90;;;;;;5070167;28;19904;-76
2022/11/20 03:23:28;;;;;;;;;;;1.20;99.90;;;;;;5052984;28;19911;-76
2022/11/20 03:25:54;;;;;;;;;;;1.20;99.90;;;;;;5069119;28;19926;-76
2022/11/20 03:28:19;;;;;;;;;;;1.30;99.90;;;;;;5052037;28;19999;-76
2022/11/20 03:30:45;;;;;;;;;;;1.30;99.90;;;;;;5068819;28;20012;-75
2022/11/20 03:33:10;;;;;;;;;;;1.40;99.90;;;;;;5052171;28;19908;-76
2022/11/20 03:35:36;;;;;;;;;;;1.40;99.90;;;;;;5070539;28;19909;-76
2022/11/20 03:38:01;;;;;;;;;;;1.40;99.90;;;;;;5069624;28;20631;-75
2022/11/20 03:40:27;;;;;;;;;;;1.40;99.90;;;;;;5051725;28;19919;-76
2022/11/20 03:42:52;;;;;;;;;;;1.50;99.90;;;;;;5069610;28;20335;-76
2022/11/20 03:45:18;;;;;;;;;;;1.50;99.90;;;;;;5052775;28;20349;-76
2022/11/20 03:47:43;;;;;;;;;;;1.50;99.90;;;;;;5070648;28;19904;-76
2022/11/20 03:50:09;;;;;;;;;;;1.50;99.90;;;;;;5068386;28;19911;-75
2022/11/20 03:52:35;;;;;;;;;;;1.60;99.90;;;;;;5067994;28;19938;-76
2022/11/20 03:55:00;;;;;;;;;;;1.60;99.90;;;;;;5067705;28;19947;-75
2022/11/20 03:57:26;;;;;;;;;;;1.60;99.90;;;;;;5067765;28;19959;-76
2022/11/20 03:59:51;;;;;;;;;;;1.60;99.90;;;;;;5050576;28;19905;-75
2022/11/20 04:02:17;;;;;;;;;;;1.60;99.90;;;;;;5067714;28;19915;-76
2022/11/20 04:04:42;;;;;;;;;;;1.70;99.90;;;;;;5068179;28;20383;-76
2022/11/20 04:07:08;;;;;;;;;;;1.80;99.90;;;;;;5069344;28;19911;-76
2022/11/20 04:09:34;;;;;;;;;;;1.80;99.90;;;;;;5067960;28;19914;-76
2022/11/20 04:11:59;;;;;;;;;;;1.80;99.90;;;;;;5068320;28;19987;-76
2022/11/20 04:14:25;;;;;;;;;;;1.90;99.90;;;;;;5068340;28;19905;-76
2022/11/20 04:16:50;;;;;;;;;;;1.80;99.90;;;;;;5067896;28;19916;-76
2022/11/20 04:19:16;;;;;;;;;;;1.90;99.90;;;;;;5067913;28;20039;-75
2022/11/20 04:21:42;;;;;;;;;;;1.90;99.90;;;;;;5068170;28;19912;-76
2022/11/20 04:24:08;;;;;;;;;;;1.90;99.90;;;;;;5050113;28;19912;-75
2022/11/20 04:26:34;;;;;;;;;;;1.90;99.90;;;;;;5067946;28;20335;-76
2022/11/20 04:29:01;;;;;;;;;;;2.00;99.90;;;;;;5067794;28;19934;-76
2022/11/20 04:31:28;;;;;;;;;;;2.00;99.90;;;;;;5067494;28;19923;-76
2022/11/20 04:33:53;;;;;;;;;;;2.00;99.90;;;;;;5067907;28;19909;-76
2022/11/20 04:36:23;;;;;;;;;;;2.00;99.90;;;;;;5050127;28;19919;-75
2022/11/20 04:38:52;;;;;;;;;;;2.00;99.90;;;;;;5067270;28;19920;-76
2022/11/20 04:41:19;;;;;;;;;;;2.10;99.90;;;;;;5050099;28;19987;-76
2022/11/20 04:43:48;;;;;;;;;;;2.10;99.90;;;;;;5068400;28;19997;-75
2022/11/20 04:46:14;;;;;;;;;;;2.10;99.90;;;;;;5050189;28;20662;-76
2022/11/20 04:48:39;;;;;;;;;;;2.10;99.90;;;;;;5068663;28;19995;-75
2022/11/20 04:51:05;;;;;;;;;;;2.20;99.90;;;;;;5068634;28;19958;-75
2022/11/20 04:53:31;;;;;;;;;;;2.10;99.90;;;;;;5067615;28;20178;-76
2022/11/20 04:56:06;;;;;;;;;;;2.20;99.90;;;;;;5067956;28;19920;-77
2022/11/20 04:58:33;;;;;;;;;;;2.20;99.90;;;;;;5068147;28;19962;-76
2022/11/20 05:01:05;;;;;;;;;;;2.20;99.90;;;;;;5051051;28;19916;-76
2022/11/20 05:03:31;;;;;;;;;;;2.20;99.90;;;;;;5068074;28;19962;-76
2022/11/20 05:05:59;;;;;;;;;;;2.10;99.90;;;;;;5050530;28;19908;-76
2022/11/20 05:08:25;;;;;;;;;;;2.20;99.90;;;;;;5052999;28;19909;-76
2022/11/20 05:10:50;;;;;;;;;;;2.20;99.90;;;;;;5072359;28;19912;-75
2022/11/20 05:13:16;;;;;;;;;;;2.20;99.90;;;;;;5072443;28;19947;-76
2022/11/20 05:15:41;;;;;;;;;;;2.30;99.90;;;;;;5072389;28;19916;-76
2022/11/20 05:18:07;;;;;;;;;;;2.30;99.90;;;;;;5072580;28;20554;-75
2022/11/20 05:20:32;;;;;;;;;;;2.30;99.90;;;;;;5054585;28;19911;-76
2022/11/20 05:22:58;;;;;;;;;;;2.30;99.90;;;;;;5054237;28;20387;-76
2022/11/20 05:25:23;;;;;;;;;;;2.30;99.90;;;;;;5072298;28;19927;-76
2022/11/20 05:27:49;;;;;;;;;;;2.30;99.90;;;;;;5072025;28;19909;-76
2022/11/20 05:30:14;;;;;;;;;;;2.30;99.90;;;;;;5073381;28;20269;-76
2022/11/20 05:32:40;;;;;;;;;;;2.30;99.90;;;;;;5072113;28;20061;-76
2022/11/20 05:35:06;;;;;;;;;;;2.30;99.90;;;;;;5073069;28;19990;-76
2022/11/20 05:37:31;;;;;;;;;;;2.30;99.90;;;;;;5073161;28;19958;-76
2022/11/20 05:39:57;;;;;;;;;;;2.30;99.90;;;;;;5071639;28;19916;-76
2022/11/20 05:42:31;;;;;;;;;;;2.40;99.90;;;;;;5054551;28;19912;-76
2022/11/20 05:45:00;;;;;;;;;;;2.40;99.90;;;;;;5072544;28;19908;-75
2022/11/20 05:47:27;;;;;;;;;;;2.40;99.90;;;;;;5053666;28;19909;-75
2022/11/20 05:49:53;;;;;;;;;;;2.40;99.90;;;;;;5072241;28;19908;-76
2022/11/20 05:52:18;;;;;;;;;;;2.40;99.90;;;;;;5055334;28;20389;-76
2022/11/20 05:54:44;;;;;;;;;;;2.40;99.90;;;;;;5072473;28;20010;-76
2022/11/20 05:57:09;;;;;;;;;;;2.40;99.90;;;;;;5071556;28;19923;-75
2022/11/20 05:59:35;;;;;;;;;;;2.40;99.90;;;;;;5072834;28;19908;-76
2022/11/20 06:02:00;;;;;;;;;;;2.50;99.90;;;;;;5055527;28;19912;-76
2022/11/20 06:04:26;;;;;;;;;;;2.40;99.90;;;;;;5074159;28;19912;-76
2022/11/20 06:06:51;;;;;;;;;;;2.40;99.90;;;;;;5056657;28;19936;-76
2022/11/20 06:09:17;;;;;;;;;;;2.40;99.90;;;;;;5073581;28;20708;-76
2022/11/20 06:11:42;;;;;;;;;;;2.40;99.90;;;;;;5070337;28;19915;-75
2022/11/20 06:14:08;;;;;;;;;;;2.40;99.90;;;;;;5071212;28;19952;-76
2022/11/20 06:16:33;;;;;;;;;;;2.40;99.90;;;;;;5070919;28;19943;-76
2022/11/20 06:18:59;;;;;;;;;;;2.50;99.90;;;;;;5070576;28;19908;-75
2022/11/20 06:21:24;;;;;;;;;;;2.50;99.90;;;;;;5052213;28;19914;-75
2022/11/20 06:23:50;;;;;;;;;;;2.50;99.90;;;;;;5069524;28;19912;-77
2022/11/20 06:26:17;;;;;;;;;;;2.60;99.90;;;;;;5070828;28;19912;-76
2022/11/20 06:28:43;;;;;;;;;;;2.60;99.90;;;;;;5052537;28;20000;-77
2022/11/20 06:31:10;;;;;;;;;;;2.70;99.90;;;;;;5070570;28;20003;-77
2022/11/20 06:33:36;;;;;;;;;;;2.70;99.90;;;;;;5070891;28;19966;-77
2022/11/20 06:36:03;;;;;;;;;;;2.70;99.90;;;;;;5052031;28;20358;-76
2022/11/20 06:38:28;;;;;;;;;;;2.70;99.90;;;;;;5052685;28;19931;-76
2022/11/20 06:40:54;;;;;;;;;;;2.70;99.90;;;;;;5070062;28;20388;-77
2022/11/20 06:43:20;;;;;;;;;;;2.80;99.90;;;;;;5069978;28;19904;-77
2022/11/20 06:45:45;;;;;;;;;;;2.90;99.90;;;;;;5069904;28;19934;-77
2022/11/20 06:48:11;;;;;;;;;;;2.90;99.90;;;;;;5051812;28;19912;-76
2022/11/20 06:50:37;;;;;;;;;;;2.90;99.90;;;;;;5070153;28;19908;-76
2022/11/20 06:53:03;;;;;;;;;;;3.00;99.90;;;;;;5051985;28;19904;-76
2022/11/20 06:55:29;;;;;;;;;;;3.10;99.90;;;;;;5069747;28;19904;-77
2022/11/20 06:57:55;;;;;;;;;;;3.20;99.90;;;;;;5069558;28;19961;-76
2022/11/20 07:00:20;;;;;;;;;;;3.20;99.90;;;;;;5069229;28;19909;-76
2022/11/20 07:02:46;;;;;;;;;;;3.30;99.90;;;;;;5051050;28;19954;-76
2022/11/20 07:05:11;;;;;;;;;;;3.50;99.90;;;;;;5069083;28;19988;-76
2022/11/20 07:07:37;;;;;;;;;;;3.50;99.90;;;;;;5050853;28;19908;-76
2022/11/20 07:10:02;;;;;;;;;;;3.50;99.90;;;;;;5068776;28;20364;-76
2022/11/20 07:12:28;;;;;;;;;;;3.50;99.90;;;;;;5068606;28;19912;-76
2022/11/20 07:14:53;;;;;;;;;;;3.50;99.90;;;;;;5051313;28;19911;-76
2022/11/20 07:17:19;;;;;;;;;;;3.60;99.90;;;;;;5050857;28;19919;-77
2022/11/20 07:19:44;;;;;;;;;;;3.60;99.90;;;;;;5051249;28;19905;-76
2022/11/20 07:22:10;;;;;;;;;;;3.70;99.90;;;;;;5050706;28;20360;-76
2022/11/20 07:24:35;;;;;;;;;;;3.80;99.90;;;;;;5067873;28;19912;-76
2022/11/20 07:27:01;;;;;;;;;;;3.80;99.90;;;;;;5068227;28;20010;-76
2022/11/20 07:29:26;;;;;;;;;;;3.90;99.90;;;;;;5050589;28;19912;-76
2022/11/20 07:31:52;;;;;;;;;;;3.90;99.90;;;;;;5067751;28;20391;-76
2022/11/20 07:34:17;;;;;;;;;;;4.00;99.90;;;;;;5050688;28;20097;-77
2022/11/20 07:36:43;;;;;;;;;;;4.00;99.90;;;;;;5068935;28;19920;-76
2022/11/20 07:39:08;;;;;;;;;;;4.30;99.90;;;;;;5068311;28;20380;-76
2022/11/20 07:41:34;;;;;;;;;;;4.30;99.90;;;;;;5068703;28;19987;-77
2022/11/20 07:43:59;;;;;;;;;;;4.40;99.90;;;;;;5070682;28;20333;-77
2022/11/20 07:46:25;;;;;;;;;;;4.60;99.90;;;;;;5070450;28;20589;-76
2022/11/20 07:48:50;;;;;;;;;;;4.70;99.90;;;;;;5071399;28;19949;-77
2022/11/20 07:51:16;;;;;;;;;;;4.80;99.90;;;;;;5071200;28;19912;-77
2022/11/20 07:53:41;;;;;;;;;;;4.90;99.90;;;;;;5051878;28;20322;-76
2022/11/20 07:56:07;;;;;;;;;;;4.80;99.90;;;;;;5070369;28;19993;-77
2022/11/20 07:58:34;;;;;;;;;;;4.90;99.90;;;;;;5069586;28;20288;-77
2022/11/20 08:01:06;;;;;;;;;;;4.80;99.90;;;;;;5070589;28;19908;-77
2022/11/20 08:03:32;;;;;;;;;;;4.90;99.90;;;;;;5070871;28;20256;-77
2022/11/20 08:06:01;;;;;;;;;;;4.90;99.90;;;;;;5053572;28;20467;-78
2022/11/20 08:08:27;;;;;;;;;;;4.90;99.90;;;;;;5052740;28;19908;-77
2022/11/20 08:14:11;;;;;;;;;;;5.00;99.90;;;;;;5070775;28;19904;-77
2022/11/20 08:16:22;;;;;;;;;;;5.00;99.90;;;;;;5071372;28;20288;-78
2022/11/20 08:18:48;;;;;;;;;;;5.10;99.90;;;;;;5071534;28;19912;-78
2022/11/20 08:21:13;;;;;;;;;;;5.10;99.90;;;;;;5071896;28;19932;-78
2022/11/20 08:23:39;;;;;;;;;;;5.10;99.90;;;;;;5071287;28;20499;-78
2022/11/20 08:26:04;;;;;;;;;;;5.10;99.90;;;;;;5073109;28;19904;-78
2022/11/20 08:28:30;;;;;;;;;;;5.10;99.90;;;;;;5072598;28;19908;-76
2022/11/20 08:30:59;;;;;;;;;;;5.20;99.90;;;;;;5072499;28;19959;-77
2022/11/20 08:33:25;;;;;;;;;;;5.20;99.90;;;;;;5068460;28;19951;-77
2022/11/20 08:35:50;;;;;;;;;;;5.20;99.90;;;;;;5067887;28;19955;-76
2022/11/20 08:38:16;;;;;;;;;;;5.20;99.90;;;;;;5067651;28;19908;-76
2022/11/20 08:41:23;;;;;;;;;;;5.10;99.90;;;;;;5067593;28;19943;-76
2022/11/20 08:43:27;;;;;;;;;;;5.10;99.90;;;;;;5066990;28;19909;-75
2022/11/20 08:45:52;;;;;;;;;;;5.10;99.90;;;;;;5067677;28;19912;-77
2022/11/20 08:48:18;;;;;;;;;;;5.10;99.90;;;;;;5067454;28;19912;-76
2022/11/20 08:50:43;;;;;;;;;;;5.20;99.90;;;;;;5049992;28;19908;-76
2022/11/20 08:53:09;;;;;;;;;;;5.30;99.90;;;;;;5067672;28;20144;-77
2022/11/20 08:55:36;;;;;;;;;;;5.30;99.90;;;;;;5068371;28;20449;-78
2022/11/20 08:58:05;;;;;;;;;;;5.40;99.90;;;;;;5068177;28;19908;-77
2022/11/20 09:00:32;;;;;;;;;;;5.50;99.90;;;;;;5068526;28;20308;-77
2022/11/20 09:02:58;;;;;;;;;;;5.50;99.90;;;;;;5068604;28;19908;-77
2022/11/20 09:05:24;;;;;;;;;;;5.50;99.90;;;;;;5069399;28;20511;-77
2022/11/20 09:07:49;;;;;;;;;;;5.60;99.90;;;;;;5068323;28;20011;-77
2022/11/20 09:10:15;;;;;;;;;;;5.60;99.90;;;;;;5069657;28;20282;-76
2022/11/20 09:12:40;;;;;;;;;;;5.70;99.90;;;;;;5069154;28;19968;-77
2022/11/20 09:15:06;;;;;;;;;;;6.00;99.90;;;;;;5051062;28;19912;-77
2022/11/20 09:17:32;;;;;;;;;;;5.90;99.90;;;;;;5067475;28;20005;-74
2022/11/20 09:19:57;;;;;;;;;;;6.10;99.90;;;;;;5067761;28;20051;-77
2022/11/20 09:22:23;;;;;;;;;;;6.30;99.90;;;;;;5068356;28;19915;-74
2022/11/20 09:24:49;;;;;;;;;;;6.40;99.90;;;;;;5068074;28;19908;-75
2022/11/20 09:27:14;;;;;;;;;;;6.70;99.90;;;;;;5068486;28;19908;-76
2022/11/20 09:29:39;;;;;;;;;;;6.90;99.90;;;;;;5067694;28;19909;-75
2022/11/20 09:32:05;;;;;;;;;;;7.20;99.90;;;;;;5067163;28;20408;-75
2022/11/20 09:34:31;;;;;;;;;;;7.40;99.90;;;;;;5067433;28;19908;-75
2022/11/20 09:36:56;;;;;;;;;;;7.70;99.90;;;;;;5066702;28;19920;-75
2022/11/20 09:39:22;;;;;;;;;;;7.90;99.90;;;;;;5067128;28;19978;-75
2022/11/20 09:41:49;;;;;;;;;;;8.00;99.90;;;;;;5048651;28;19919;-75
2022/11/20 09:44:33;;;;;;;;;;;8.30;99.90;;;;;;5067438;28;19911;-77
2022/11/20 09:46:59;;;;;;;;;;;8.40;99.90;;;;;;5066881;28;19997;-77
2022/11/20 09:49:37;;;;;;;;;;;8.60;99.90;;;;;;5066576;28;20320;-77
2022/11/20 09:52:05;;;;;;;;;;;8.70;99.90;;;;;;5066349;28;19983;-76
2022/11/20 09:54:38;;;;;;;;;;;8.70;99.90;;;;;;5068556;28;19908;-77
2022/11/20 09:57:15;;;;;;;;;;;8.80;99.90;;;;;;5052008;28;19923;-77
2022/11/20 09:59:46;;;;;;;;;;;8.80;99.90;;;;;;5052878;28;19947;-75
2022/11/20 10:02:17;;;;;;;;;;;8.90;99.90;;;;;;5052680;28;19909;-76
2022/11/20 10:04:45;;;;;;;;;;;8.90;99.90;;;;;;5052473;28;19908;-77
2022/11/20 10:07:23;;;;;;;;;;;9.00;99.90;;;;;;5070046;28;19951;-76
2022/11/20 10:09:53;;;;;;;;;;;9.00;99.90;;;;;;5069924;28;20388;-76
2022/11/20 10:12:34;;;;;;;;;;;9.10;99.90;;;;;;5052033;28;20284;-77
2022/11/20 10:15:06;;;;;;;;;;;9.10;99.90;;;;;;5065700;28;19905;-79
2022/11/20 10:17:52;;;;;;;;;;;9.20;99.90;;;;;;5052117;28;20645;-78
2022/11/20 10:20:27;;;;;;;;;;;9.30;99.90;;;;;;5028219;28;19916;-76
2022/11/20 10:22:59;;;;;;;;;;;9.40;99.90;;;;;;5051048;28;19944;-77
2022/11/20 10:25:31;;;;;;;;;;;9.50;99.90;;;;;;5068407;28;19904;-76
2022/11/20 10:28:17;;;;;;;;;;;9.60;99.90;;;;;;5068783;28;20287;-76
2022/11/20 10:30:43;;;;;;;;;;;9.80;99.90;;;;;;5054556;28;19950;-77
2022/11/20 10:33:22;;;;;;;;;;;9.80;99.90;;;;;;5069091;28;19919;-77
2022/11/20 10:35:54;;;;;;;;;;;9.90;99.90;;;;;;5068849;28;19970;-77
2022/11/20 10:38:21;;;;;;;;;;;9.90;99.90;;;;;;5050590;28;19912;-78
2022/11/20 10:41:24;;;;;;;;;;;9.90;99.90;;;;;;5069102;28;20393;-77
2022/11/20 10:43:44;;;;;;;;;;;9.90;99.90;;;;;;5069332;28;19908;-77
2022/11/20 10:46:18;;;;;;;;;;;9.90;99.90;;;;;;5051519;28;19915;-77
2022/11/20 10:48:44;;;;;;;;;;;9.90;99.90;;;;;;5069488;28;19911;-77
2022/11/20 10:51:13;;;;;;;;;;;9.90;99.90;;;;;;5052023;28;20307;-77
2022/11/20 10:53:39;;;;;;;;;;;9.80;99.90;;;;;;5069402;28;19915;-77
2022/11/20 10:56:23;;;;;;;;;;;9.60;99.90;;;;;;5069575;28;19916;-77
2022/11/20 10:59:09;;;;;;;;;;;9.50;99.90;;;;;;5051141;28;19912;-77
2022/11/20 11:01:39;;;;;;;;;;;9.40;99.90;;;;;;5027565;28;19923;-77
2022/11/20 11:04:15;;;;;;;;;;;9.20;99.90;;;;;;5051557;28;19931;-76
2022/11/20 11:06:43;;;;;;;;;;;9.10;99.90;;;;;;5050115;28;19909;-77
2022/11/20 11:09:11;;;;;;;;;;;9.10;99.90;;;;;;5050856;28;19909;-77
2022/11/20 11:11:38;;;;;;;;;;;9.10;99.90;;;;;;5051792;28;19908;-77
2022/11/20 11:14:11;;;;;;;;;;;9.10;99.90;;;;;;5069333;28;19915;-76
2022/11/20 11:16:40;;;;;;;;;;;9.00;99.90;;;;;;5069401;28;20381;-77
2022/11/20 11:19:07;;;;;;;;;;;9.00;99.90;;;;;;5051255;28;19952;-77
2022/11/20 11:21:33;;;;;;;;;;;9.00;99.90;;;;;;5069107;28;20316;-77
2022/11/20 11:23:59;;;;;;;;;;;8.90;99.90;;;;;;5069187;28;20434;-77
2022/11/20 11:26:25;;;;;;;;;;;8.80;99.90;;;;;;5069351;28;19954;-76
2022/11/20 11:29:02;;;;;;;;;;;8.70;99.90;;;;;;5069259;28;19908;-76
2022/11/20 11:31:32;;;;;;;;;;;8.70;99.90;;;;;;5051174;28;19931;-77
2022/11/20 11:34:05;;;;;;;;;;;8.60;99.90;;;;;;5069922;28;19912;-77
2022/11/20 11:36:30;;;;;;;;;;;8.50;99.90;;;;;;5068964;28;19908;-76
2022/11/20 11:38:56;;;;;;;;;;;8.50;99.90;;;;;;5069040;28;19989;-77
2022/11/20 11:41:27;;;;;;;;;;;8.50;99.90;;;;;;5069173;28;20315;-77
2022/11/20 11:46:44;;;;;;;;;;;8.40;99.90;;;;;;5069194;28;19910;-76
2022/11/20 11:49:09;;;;;;;;;;;8.50;99.90;;;;;;5069017;28;19904;-76
2022/11/20 11:51:41;;;;;;;;;;;8.50;99.90;;;;;;5050521;28;19905;-76
2022/11/20 11:54:14;;;;;;;;;;;8.50;99.90;;;;;;5069157;28;19908;-76
2022/11/20 11:56:39;;;;;;;;;;;8.50;99.90;;;;;;5051465;28;19935;-76
2022/11/20 11:59:08;;;;;;;;;;;8.60;99.90;;;;;;5051365;28;20425;-76
2022/11/20 12:01:38;;;;;;;;;;;8.50;99.90;;;;;;5051016;28;19920;-75
2022/11/20 12:04:07;;;;;;;;;;;8.50;99.90;;;;;;5069438;28;20527;-76
2022/11/20 12:06:35;;;;;;;;;;;8.40;99.90;;;;;;5068858;28;19904;-76
2022/11/20 12:09:03;;;;;;;;;;;8.50;99.90;;;;;;5068654;28;19908;-76
2022/11/20 12:11:52;;;;;;;;;;;8.50;99.90;;;;;;5051661;28;20376;-75
2022/11/20 12:14:26;;;;;;;;;;;8.40;99.90;;;;;;5051856;28;19909;-76
2022/11/20 12:16:53;;;;;;;;;;;8.30;99.90;;;;;;5051297;28;19912;-76
2022/11/20 12:19:18;;;;;;;;;;;8.40;99.90;;;;;;5067898;28;19931;-76
2022/11/20 12:21:49;;;;;;;;;;;8.50;99.90;;;;;;5050805;28;20361;-75
2022/11/20 12:24:14;;;;;;;;;;;8.60;99.90;;;;;;5067934;28;19915;-76
2022/11/20 12:26:54;;;;;;;;;;;8.70;99.90;;;;;;5051145;28;19905;-76
2022/11/20 12:29:40;;;;;;;;;;;8.70;99.90;;;;;;5068510;28;19912;-76
2022/11/20 12:32:22;;;;;;;;;;;8.80;99.90;;;;;;5069128;28;20007;-77
2022/11/20 12:34:56;;;;;;;;;;;8.60;99.90;;;;;;5068226;28;19915;-76
2022/11/20 12:40:48;;;;;;;17.40;10.50;;;8.40;99.90;;;;;;5105030;27;20121;-74
2022/11/20 12:46:14;;;;;;;30.38;17.60;;;8.30;99.90;;;;;;5082841;28;20520;-75
2022/11/20 12:49:01;;;;;;;37.85;22.20;;;8.20;99.90;;;;;;5099618;28;20119;-75
2022/11/20 12:51:32;;;;;;;;;;;8.20;99.90;;;;;;5105840;28;20114;-76
2022/11/20 12:54:35;;;;;;;21.73;12.20;;;8.20;99.90;;;;;;5103868;28;19915;-75
2022/11/20 12:57:33;;;;;;;58.80;36.03;;;8.10;99.90;;;;;;5104609;28;20565;-75
2022/11/20 13:00:19;;;;;;;25.83;15.82;;;8.10;99.90;;;;;;5103162;28;20047;-74
2022/11/20 13:03:04;;;;;;;32.08;19.35;;;8.10;99.90;;;;;;5106284;28;20496;-75
2022/11/20 13:05:51;;;;;;;28.75;16.38;;;8.20;99.90;;;;;;5104066;28;20028;-75
2022/11/20 13:08:24;;;;;;;27.30;15.23;;;8.30;99.90;;;;;;5104550;28;20127;-76
2022/11/20 13:11:07;;;;;;;11.52;7.00;;;8.20;99.90;;;;;;5105337;28;20031;-74
2022/11/20 13:13:42;;;;;;;16.77;9.27;;;8.20;99.90;;;;;;5108311;28;20032;-76
2022/11/20 13:16:19;;;;;;;16.23;9.32;;;8.20;99.90;;;;;;5104715;28;20101;-75
2022/11/20 13:18:45;;;;;;;17.92;9.82;;;8.10;99.90;;;;;;5103223;28;20496;-76
2022/11/20 13:21:15;;;;;;;;;;;8.00;99.90;;;;;;5104100;28;20028;-76
2022/11/20 13:23:41;;;;;;;20.58;13.07;;;7.80;99.90;;;;;;5103986;28;19958;-75
2022/11/20 13:26:14;;;;;;;;;;;7.70;99.90;;;;;;5104129;28;20092;-76
2022/11/20 13:28:40;;;;;;;15.73;10.23;;;7.60;99.90;;;;;;5102390;28;19965;-75
2022/11/20 13:31:11;;;;;;;;;;;7.40;99.90;;;;;;5104430;28;20491;-76
2022/11/20 13:33:38;;;;;;;16.13;10.23;;;7.40;99.90;;;;;;5103623;28;19954;-75
2022/11/20 13:36:07;;;;;;;18.52;10.80;;;7.30;99.90;;;;;;5104176;28;20047;-75
2022/11/20 13:38:48;;;;;;;17.77;9.85;;;7.20;99.90;;;;;;5103656;28;20079;-74
2022/11/20 13:41:53;;;;;;;16.83;10.30;;;7.10;99.90;;;;;;5103885;28;20106;-75
2022/11/20 13:44:42;;;;;;;19.25;11.52;;;7.10;99.90;;;;;;5100558;28;20352;-76
2022/11/20 13:47:21;;;;;;;17.60;10.70;;;7.00;99.90;;;;;;5103854;28;20405;-75
2022/11/20 13:49:50;;;;;;;18.63;11.85;;;6.90;99.90;;;;;;5098555;28;20017;-75
2022/11/20 13:52:35;;;;;;;19.23;13.63;;;6.90;99.90;;;;;;5090479;28;20040;-75
2022/11/20 13:55:19;;;;;;;19.33;13.93;;;6.90;99.90;;;;;;5089138;28;20038;-76
2022/11/20 13:57:59;;;;;;;22.38;15.77;;;7.00;99.90;;;;;;5090963;28;20039;-76
2022/11/20 14:00:25;;;;;;;29.35;18.02;;;7.00;99.90;;;;;;5089156;28;20077;-75
2022/11/20 14:03:06;;;;;;;;;;;7.00;99.90;;;;;;5091315;28;20042;-75
2022/11/20 14:05:48;;;;;;;26.70;15.30;;;7.00;99.90;;;;;;5090121;28;19973;-76
2022/11/20 14:08:25;;;;;;;19.48;10.90;;;7.00;99.90;;;;;;5090909;28;20031;-75
2022/11/20 14:10:50;;;;;;;17.70;10.13;;;7.00;99.90;;;;;;5088622;28;20123;-77
2022/11/20 14:13:20;;;;;;;18.50;12.00;;;6.90;99.90;;;;;;5090555;28;20795;-76
2022/11/20 14:15:46;;;;;;;307.30;119.38;;;6.90;99.90;;;;;;5090610;28;20121;-74
2022/11/20 14:18:18;;;;;;;;;;;6.90;99.90;;;;;;5090973;28;20716;-76
2022/11/20 14:20:45;;;;;;;68.07;37.40;;;6.80;99.90;;;;;;5088381;28;19908;-75
2022/11/20 14:23:11;;;;;;;30.90;17.83;;;6.80;99.90;;;;;;5088981;28;20040;-75
2022/11/20 14:25:41;;;;;;;54.92;24.42;;;6.70;99.90;;;;;;5090937;28;20064;-75
2022/11/20 14:28:18;;;;;;;57.42;24.45;;;6.80;99.90;;;;;;5089617;28;20069;-75
2022/11/20 14:30:46;;;;;;;26.55;14.18;;;6.70;99.90;;;;;;5090356;28;20111;-77
2022/11/20 14:33:13;;;;;;;34.90;16.40;;;6.50;99.90;;;;;;5088866;28;20024;-75
2022/11/20 14:35:57;;;;;;;35.25;17.75;;;6.50;99.90;;;;;;5089748;28;20028;-75
2022/11/20 14:38:28;;;;;;;49.08;22.65;;;6.40;99.90;;;;;;5089923;28;20084;-75
2022/11/20 14:40:54;;;;;;;47.33;20.17;;;6.30;99.90;;;;;;5087461;28;20503;-75
2022/11/20 14:43:19;;;;;;;;;;;6.20;99.90;;;;;;5089086;28;20051;-76